sensor_id;sensor_type;location;lat;lon;timestamp;P1;durP1;ratioP1;P2;durP2;ratioP2
21420;SDS011;10871;50.144;8.428;2022-07-10T00:02:00;6.15;;;4.10;;
21420;SDS011;10871;50.144;8.428;2022-07-10T00:04:27;5.65;;;3.90;;
21420;SDS011;10871;50.144;8.428;2022-07-10T00:06:54;5.65;;;4.22;;
21420;SDS011;10871;50.144;8.428;2022-07-10T00:09:22;7.68;;;4.15;;
21420;SDS011;10871;50.144;8.428;2022-07-10T00:11:48;6.95;;;3.92;;
21420;SDS011;10871;50.144;8.428;2022-07-10T00:14:14;4.88;;;3.70;;
21420;SDS011;10871;50.144;8.428;2022-07-10T00:16:41;6.68;;;3.55;;
21420;SDS011;10871;50.144;8.428;2022-07-10T00:19:11;6.10;;;3.53;;
21420;SDS011;10871;50.144;8.428;2022-07-10T00:21:37;4.28;;;3.58;;
21420;SDS011;10871;50.144;8.428;2022-07-10T00:24:04;5.30;;;3.50;;
21420;SDS011;10871;50.144;8.428;2022-07-10T00:26:30;7.97;;;3.65;;
21420;SDS011;10871;50.144;8.428;2022-07-10T00:28:56;8.23;;;3.55;;
21420;SDS011;10871;50.144;8.428;2022-07-10T00:31:23;4.28;;;3.28;;
21420;SDS011;10871;50.144;8.428;2022-07-10T00:33:49;6.43;;;3.80;;
21420;SDS011;10871;50.144;8.428;2022-07-10T00:36:17;5.70;;;3.22;;
21420;SDS011;10871;50.144;8.428;2022-07-10T00:38:43;11.52;;;3.30;;
21420;SDS011;10871;50.144;8.428;2022-07-10T00:41:09;9.82;;;3.70;;
21420;SDS011;10871;50.144;8.428;2022-07-10T00:43:55;6.38;;;3.10;;
21420;SDS011;10871;50.144;8.428;2022-07-10T00:46:22;4.90;;;3.20;;
21420;SDS011;10871;50.144;8.428;2022-07-10T00:48:48;5.80;;;2.97;;
21420;SDS011;10871;50.144;8.428;2022-07-10T00:51:16;7.85;;;3.47;;
21420;SDS011;10871;50.144;8.428;2022-07-10T00:53:44;6.70;;;3.20;;
21420;SDS011;10871;50.144;8.428;2022-07-10T00:56:11;7.03;;;3.25;;
21420;SDS011;10871;50.144;8.428;2022-07-10T00:58:38;8.98;;;3.42;;
21420;SDS011;10871;50.144;8.428;2022-07-10T01:01:06;6.38;;;3.08;;
21420;SDS011;10871;50.144;8.428;2022-07-10T01:03:33;5.07;;;3.33;;
21420;SDS011;10871;50.144;8.428;2022-07-10T01:05:59;10.77;;;3.15;;
21420;SDS011;10871;50.144;8.428;2022-07-10T01:08:26;7.82;;;3.53;;
21420;SDS011;10871;50.144;8.428;2022-07-10T01:10:53;5.20;;;2.88;;
21420;SDS011;10871;50.144;8.428;2022-07-10T01:13:19;5.72;;;3.22;;
21420;SDS011;10871;50.144;8.428;2022-07-10T01:15:46;4.25;;;2.78;;
21420;SDS011;10871;50.144;8.428;2022-07-10T01:18:13;6.90;;;3.00;;
21420;SDS011;10871;50.144;8.428;2022-07-10T01:20:39;6.53;;;2.90;;
21420;SDS011;10871;50.144;8.428;2022-07-10T01:23:06;7.03;;;2.65;;
21420;SDS011;10871;50.144;8.428;2022-07-10T01:25:32;6.45;;;2.75;;
21420;SDS011;10871;50.144;8.428;2022-07-10T01:27:59;6.88;;;2.75;;
21420;SDS011;10871;50.144;8.428;2022-07-10T01:30:25;7.72;;;2.75;;
21420;SDS011;10871;50.144;8.428;2022-07-10T01:32:52;12.40;;;3.03;;
21420;SDS011;10871;50.144;8.428;2022-07-10T01:35:18;9.93;;;2.88;;
21420;SDS011;10871;50.144;8.428;2022-07-10T01:37:45;5.38;;;2.40;;
21420;SDS011;10871;50.144;8.428;2022-07-10T01:40:12;7.57;;;2.55;;
21420;SDS011;10871;50.144;8.428;2022-07-10T01:42:38;5.30;;;2.47;;
21420;SDS011;10871;50.144;8.428;2022-07-10T01:45:08;8.38;;;2.75;;
21420;SDS011;10871;50.144;8.428;2022-07-10T01:47:35;3.17;;;2.33;;
21420;SDS011;10871;50.144;8.428;2022-07-10T01:50:02;5.20;;;2.53;;
21420;SDS011;10871;50.144;8.428;2022-07-10T01:52:29;9.68;;;2.67;;
21420;SDS011;10871;50.144;8.428;2022-07-10T01:54:55;6.10;;;2.38;;
21420;SDS011;10871;50.144;8.428;2022-07-10T01:57:22;5.38;;;2.70;;
21420;SDS011;10871;50.144;8.428;2022-07-10T01:59:48;5.45;;;2.35;;
21420;SDS011;10871;50.144;8.428;2022-07-10T02:02:15;7.47;;;2.80;;
21420;SDS011;10871;50.144;8.428;2022-07-10T02:04:41;5.45;;;2.22;;
21420;SDS011;10871;50.144;8.428;2022-07-10T02:07:12;7.97;;;3.00;;
21420;SDS011;10871;50.144;8.428;2022-07-10T02:09:39;5.60;;;2.75;;
21420;SDS011;10871;50.144;8.428;2022-07-10T02:12:06;5.82;;;3.05;;
21420;SDS011;10871;50.144;8.428;2022-07-10T02:14:33;4.43;;;2.88;;
21420;SDS011;10871;50.144;8.428;2022-07-10T02:16:59;4.57;;;3.13;;
21420;SDS011;10871;50.144;8.428;2022-07-10T02:19:25;5.80;;;3.33;;
21420;SDS011;10871;50.144;8.428;2022-07-10T02:21:52;7.05;;;3.33;;
21420;SDS011;10871;50.144;8.428;2022-07-10T02:24:18;3.95;;;2.67;;
21420;SDS011;10871;50.144;8.428;2022-07-10T02:26:45;3.95;;;2.80;;
21420;SDS011;10871;50.144;8.428;2022-07-10T02:29:11;5.32;;;2.88;;
21420;SDS011;10871;50.144;8.428;2022-07-10T02:31:37;7.50;;;3.10;;
21420;SDS011;10871;50.144;8.428;2022-07-10T02:34:07;4.53;;;2.70;;
21420;SDS011;10871;50.144;8.428;2022-07-10T02:36:34;5.53;;;2.70;;
21420;SDS011;10871;50.144;8.428;2022-07-10T02:39:00;3.90;;;2.53;;
21420;SDS011;10871;50.144;8.428;2022-07-10T02:41:27;6.68;;;2.22;;
21420;SDS011;10871;50.144;8.428;2022-07-10T02:43:53;8.45;;;2.35;;
21420;SDS011;10871;50.144;8.428;2022-07-10T02:46:20;5.55;;;2.60;;
21420;SDS011;10871;50.144;8.428;2022-07-10T02:48:46;7.65;;;2.78;;
21420;SDS011;10871;50.144;8.428;2022-07-10T02:51:12;6.65;;;2.75;;
21420;SDS011;10871;50.144;8.428;2022-07-10T02:53:39;3.95;;;2.65;;
21420;SDS011;10871;50.144;8.428;2022-07-10T02:56:05;7.35;;;2.80;;
21420;SDS011;10871;50.144;8.428;2022-07-10T02:58:32;7.28;;;2.80;;
21420;SDS011;10871;50.144;8.428;2022-07-10T03:00:59;5.32;;;2.85;;
21420;SDS011;10871;50.144;8.428;2022-07-10T03:03:25;8.27;;;2.90;;
21420;SDS011;10871;50.144;8.428;2022-07-10T03:05:52;4.65;;;3.22;;
21420;SDS011;10871;50.144;8.428;2022-07-10T03:08:18;7.47;;;3.15;;
21420;SDS011;10871;50.144;8.428;2022-07-10T03:10:44;4.80;;;3.05;;
21420;SDS011;10871;50.144;8.428;2022-07-10T03:13:11;5.47;;;3.15;;
21420;SDS011;10871;50.144;8.428;2022-07-10T03:15:37;9.27;;;3.10;;
21420;SDS011;10871;50.144;8.428;2022-07-10T03:18:03;7.68;;;2.92;;
21420;SDS011;10871;50.144;8.428;2022-07-10T03:20:30;8.55;;;3.10;;
21420;SDS011;10871;50.144;8.428;2022-07-10T03:22:56;5.05;;;2.65;;
21420;SDS011;10871;50.144;8.428;2022-07-10T03:25:23;5.00;;;2.70;;
21420;SDS011;10871;50.144;8.428;2022-07-10T03:27:49;5.70;;;2.65;;
21420;SDS011;10871;50.144;8.428;2022-07-10T03:30:16;5.18;;;2.75;;
21420;SDS011;10871;50.144;8.428;2022-07-10T03:32:42;6.50;;;2.25;;
21420;SDS011;10871;50.144;8.428;2022-07-10T03:35:08;7.32;;;2.67;;
21420;SDS011;10871;50.144;8.428;2022-07-10T03:37:35;5.22;;;2.20;;
21420;SDS011;10871;50.144;8.428;2022-07-10T03:40:01;7.75;;;2.70;;
21420;SDS011;10871;50.144;8.428;2022-07-10T03:42:27;6.78;;;2.10;;
21420;SDS011;10871;50.144;8.428;2022-07-10T03:44:54;7.13;;;2.28;;
21420;SDS011;10871;50.144;8.428;2022-07-10T03:47:20;5.32;;;2.30;;
21420;SDS011;10871;50.144;8.428;2022-07-10T03:49:47;3.88;;;2.13;;
21420;SDS011;10871;50.144;8.428;2022-07-10T03:52:13;5.60;;;2.28;;
21420;SDS011;10871;50.144;8.428;2022-07-10T03:54:39;8.93;;;2.40;;
21420;SDS011;10871;50.144;8.428;2022-07-10T03:57:06;3.83;;;2.10;;
21420;SDS011;10871;50.144;8.428;2022-07-10T03:59:51;5.63;;;2.10;;
21420;SDS011;10871;50.144;8.428;2022-07-10T04:02:17;4.72;;;2.30;;
21420;SDS011;10871;50.144;8.428;2022-07-10T04:04:44;6.22;;;2.40;;
21420;SDS011;10871;50.144;8.428;2022-07-10T04:07:11;6.65;;;2.47;;
21420;SDS011;10871;50.144;8.428;2022-07-10T04:09:38;8.32;;;2.40;;
21420;SDS011;10871;50.144;8.428;2022-07-10T04:12:05;5.90;;;2.42;;
21420;SDS011;10871;50.144;8.428;2022-07-10T04:14:32;7.07;;;2.67;;
21420;SDS011;10871;50.144;8.428;2022-07-10T04:16:58;6.65;;;2.40;;
21420;SDS011;10871;50.144;8.428;2022-07-10T04:19:25;8.00;;;2.30;;
21420;SDS011;10871;50.144;8.428;2022-07-10T04:21:51;6.10;;;2.10;;
21420;SDS011;10871;50.144;8.428;2022-07-10T04:24:17;7.43;;;2.60;;
21420;SDS011;10871;50.144;8.428;2022-07-10T04:26:44;3.42;;;1.95;;
21420;SDS011;10871;50.144;8.428;2022-07-10T04:29:10;4.13;;;1.60;;
21420;SDS011;10871;50.144;8.428;2022-07-10T04:31:37;4.18;;;1.80;;
21420;SDS011;10871;50.144;8.428;2022-07-10T04:34:03;5.75;;;1.92;;
21420;SDS011;10871;50.144;8.428;2022-07-10T04:36:30;5.82;;;2.00;;
21420;SDS011;10871;50.144;8.428;2022-07-10T04:38:56;4.82;;;1.92;;
21420;SDS011;10871;50.144;8.428;2022-07-10T04:41:23;4.47;;;1.73;;
21420;SDS011;10871;50.144;8.428;2022-07-10T04:43:49;5.60;;;1.85;;
21420;SDS011;10871;50.144;8.428;2022-07-10T04:46:15;3.50;;;1.77;;
21420;SDS011;10871;50.144;8.428;2022-07-10T04:48:42;5.18;;;1.90;;
21420;SDS011;10871;50.144;8.428;2022-07-10T04:51:08;6.18;;;1.75;;
21420;SDS011;10871;50.144;8.428;2022-07-10T04:53:35;5.38;;;1.63;;
21420;SDS011;10871;50.144;8.428;2022-07-10T04:56:01;5.88;;;1.70;;
21420;SDS011;10871;50.144;8.428;2022-07-10T04:58:28;4.65;;;1.70;;
21420;SDS011;10871;50.144;8.428;2022-07-10T05:00:55;8.43;;;2.05;;
21420;SDS011;10871;50.144;8.428;2022-07-10T05:03:21;4.53;;;1.33;;
21420;SDS011;10871;50.144;8.428;2022-07-10T05:05:48;3.22;;;1.60;;
21420;SDS011;10871;50.144;8.428;2022-07-10T05:08:14;5.00;;;1.63;;
21420;SDS011;10871;50.144;8.428;2022-07-10T05:10:40;5.30;;;1.52;;
21420;SDS011;10871;50.144;8.428;2022-07-10T05:13:07;5.18;;;1.60;;
21420;SDS011;10871;50.144;8.428;2022-07-10T05:15:33;5.28;;;1.40;;
21420;SDS011;10871;50.144;8.428;2022-07-10T05:17:59;3.65;;;1.40;;
21420;SDS011;10871;50.144;8.428;2022-07-10T05:20:26;6.30;;;1.85;;
21420;SDS011;10871;50.144;8.428;2022-07-10T05:22:52;3.65;;;1.58;;
21420;SDS011;10871;50.144;8.428;2022-07-10T05:25:19;5.40;;;1.55;;
21420;SDS011;10871;50.144;8.428;2022-07-10T05:27:45;3.88;;;1.70;;
21420;SDS011;10871;50.144;8.428;2022-07-10T05:30:11;6.03;;;2.20;;
21420;SDS011;10871;50.144;8.428;2022-07-10T05:32:44;3.80;;;1.50;;
21420;SDS011;10871;50.144;8.428;2022-07-10T05:35:14;5.07;;;1.83;;
21420;SDS011;10871;50.144;8.428;2022-07-10T05:37:41;4.15;;;1.98;;
21420;SDS011;10871;50.144;8.428;2022-07-10T05:40:08;6.35;;;1.80;;
21420;SDS011;10871;50.144;8.428;2022-07-10T05:42:34;5.32;;;2.08;;
21420;SDS011;10871;50.144;8.428;2022-07-10T05:45:01;6.30;;;2.05;;
21420;SDS011;10871;50.144;8.428;2022-07-10T05:47:27;4.85;;;1.55;;
21420;SDS011;10871;50.144;8.428;2022-07-10T05:49:53;4.90;;;1.70;;
21420;SDS011;10871;50.144;8.428;2022-07-10T05:52:20;3.85;;;1.70;;
21420;SDS011;10871;50.144;8.428;2022-07-10T05:54:46;6.07;;;2.17;;
21420;SDS011;10871;50.144;8.428;2022-07-10T05:57:13;4.68;;;1.77;;
21420;SDS011;10871;50.144;8.428;2022-07-10T05:59:39;3.90;;;1.80;;
21420;SDS011;10871;50.144;8.428;2022-07-10T06:02:06;3.28;;;1.55;;
21420;SDS011;10871;50.144;8.428;2022-07-10T06:04:32;3.72;;;1.40;;
21420;SDS011;10871;50.144;8.428;2022-07-10T06:06:59;4.88;;;1.77;;
21420;SDS011;10871;50.144;8.428;2022-07-10T06:09:25;6.22;;;1.60;;
21420;SDS011;10871;50.144;8.428;2022-07-10T06:11:51;4.68;;;2.00;;
21420;SDS011;10871;50.144;8.428;2022-07-10T06:14:18;3.42;;;1.65;;
21420;SDS011;10871;50.144;8.428;2022-07-10T06:16:44;5.85;;;1.83;;
21420;SDS011;10871;50.144;8.428;2022-07-10T06:19:10;3.90;;;1.42;;
21420;SDS011;10871;50.144;8.428;2022-07-10T06:21:37;6.90;;;1.67;;
21420;SDS011;10871;50.144;8.428;2022-07-10T06:24:03;4.57;;;1.40;;
21420;SDS011;10871;50.144;8.428;2022-07-10T06:26:30;3.45;;;1.33;;
21420;SDS011;10871;50.144;8.428;2022-07-10T06:28:56;3.58;;;1.40;;
21420;SDS011;10871;50.144;8.428;2022-07-10T06:31:22;4.40;;;1.70;;
21420;SDS011;10871;50.144;8.428;2022-07-10T06:33:49;4.82;;;1.50;;
21420;SDS011;10871;50.144;8.428;2022-07-10T06:36:15;5.00;;;1.10;;
21420;SDS011;10871;50.144;8.428;2022-07-10T06:38:47;5.78;;;1.50;;
21420;SDS011;10871;50.144;8.428;2022-07-10T06:41:14;4.13;;;1.20;;
21420;SDS011;10871;50.144;8.428;2022-07-10T06:43:40;4.32;;;1.48;;
21420;SDS011;10871;50.144;8.428;2022-07-10T06:46:07;3.65;;;1.40;;
21420;SDS011;10871;50.144;8.428;2022-07-10T06:48:33;4.82;;;1.55;;
21420;SDS011;10871;50.144;8.428;2022-07-10T06:51:02;4.32;;;1.33;;
21420;SDS011;10871;50.144;8.428;2022-07-10T06:53:31;6.00;;;1.60;;
21420;SDS011;10871;50.144;8.428;2022-07-10T06:55:57;6.18;;;1.92;;
21420;SDS011;10871;50.144;8.428;2022-07-10T06:58:24;5.05;;;1.20;;
21420;SDS011;10871;50.144;8.428;2022-07-10T07:00:51;5.28;;;1.40;;
21420;SDS011;10871;50.144;8.428;2022-07-10T07:03:18;4.28;;;1.25;;
21420;SDS011;10871;50.144;8.428;2022-07-10T07:05:44;3.75;;;1.48;;
21420;SDS011;10871;50.144;8.428;2022-07-10T07:08:11;3.45;;;1.20;;
21420;SDS011;10871;50.144;8.428;2022-07-10T07:10:39;7.25;;;1.45;;
21420;SDS011;10871;50.144;8.428;2022-07-10T07:13:07;6.57;;;1.42;;
21420;SDS011;10871;50.144;8.428;2022-07-10T07:15:35;4.82;;;1.23;;
21420;SDS011;10871;50.144;8.428;2022-07-10T07:18:04;3.65;;;1.23;;
21420;SDS011;10871;50.144;8.428;2022-07-10T07:20:34;8.15;;;1.20;;
21420;SDS011;10871;50.144;8.428;2022-07-10T07:23:19;5.53;;;1.50;;
21420;SDS011;10871;50.144;8.428;2022-07-10T07:25:46;3.15;;;1.30;;
21420;SDS011;10871;50.144;8.428;2022-07-10T07:28:16;3.42;;;1.40;;
21420;SDS011;10871;50.144;8.428;2022-07-10T07:30:43;6.18;;;1.58;;
21420;SDS011;10871;50.144;8.428;2022-07-10T07:33:10;3.55;;;1.20;;
21420;SDS011;10871;50.144;8.428;2022-07-10T07:35:37;5.20;;;1.40;;
21420;SDS011;10871;50.144;8.428;2022-07-10T07:38:03;6.68;;;1.30;;
21420;SDS011;10871;50.144;8.428;2022-07-10T07:40:30;2.60;;;0.98;;
21420;SDS011;10871;50.144;8.428;2022-07-10T07:42:56;6.35;;;1.20;;
21420;SDS011;10871;50.144;8.428;2022-07-10T07:45:23;6.05;;;1.35;;
21420;SDS011;10871;50.144;8.428;2022-07-10T07:47:51;6.53;;;1.20;;
21420;SDS011;10871;50.144;8.428;2022-07-10T07:50:18;3.78;;;1.30;;
21420;SDS011;10871;50.144;8.428;2022-07-10T07:52:45;3.88;;;1.27;;
21420;SDS011;10871;50.144;8.428;2022-07-10T07:55:12;4.82;;;1.30;;
21420;SDS011;10871;50.144;8.428;2022-07-10T07:57:38;4.10;;;1.38;;
21420;SDS011;10871;50.144;8.428;2022-07-10T08:00:05;6.60;;;1.13;;
21420;SDS011;10871;50.144;8.428;2022-07-10T08:02:41;3.72;;;1.20;;
21420;SDS011;10871;50.144;8.428;2022-07-10T08:05:08;3.50;;;1.15;;
21420;SDS011;10871;50.144;8.428;2022-07-10T08:07:36;2.85;;;1.05;;
21420;SDS011;10871;50.144;8.428;2022-07-10T08:10:05;4.05;;;1.05;;
21420;SDS011;10871;50.144;8.428;2022-07-10T08:12:32;4.38;;;1.33;;
21420;SDS011;10871;50.144;8.428;2022-07-10T08:14:58;7.32;;;1.67;;
21420;SDS011;10871;50.144;8.428;2022-07-10T08:17:26;5.97;;;1.20;;
21420;SDS011;10871;50.144;8.428;2022-07-10T08:19:52;4.50;;;1.02;;
21420;SDS011;10871;50.144;8.428;2022-07-10T08:25:12;4.63;;;1.52;;
21420;SDS011;10871;50.144;8.428;2022-07-10T08:27:39;4.22;;;1.23;;
21420;SDS011;10871;50.144;8.428;2022-07-10T08:32:36;6.63;;;1.30;;
21420;SDS011;10871;50.144;8.428;2022-07-10T08:35:03;5.70;;;1.38;;
21420;SDS011;10871;50.144;8.428;2022-07-10T08:37:36;6.80;;;1.55;;
21420;SDS011;10871;50.144;8.428;2022-07-10T08:40:02;3.55;;;1.20;;
21420;SDS011;10871;50.144;8.428;2022-07-10T08:42:29;3.63;;;1.30;;
21420;SDS011;10871;50.144;8.428;2022-07-10T08:44:58;4.43;;;1.10;;
21420;SDS011;10871;50.144;8.428;2022-07-10T08:47:24;4.55;;;1.50;;
21420;SDS011;10871;50.144;8.428;2022-07-10T08:49:52;3.95;;;1.40;;
21420;SDS011;10871;50.144;8.428;2022-07-10T08:54:47;7.20;;;1.75;;
21420;SDS011;10871;50.144;8.428;2022-07-10T08:57:14;6.78;;;1.60;;
21420;SDS011;10871;50.144;8.428;2022-07-10T08:59:41;3.65;;;1.23;;
21420;SDS011;10871;50.144;8.428;2022-07-10T09:02:08;3.72;;;1.40;;
21420;SDS011;10871;50.144;8.428;2022-07-10T09:04:34;3.70;;;1.25;;
21420;SDS011;10871;50.144;8.428;2022-07-10T09:07:01;6.55;;;1.65;;
21420;SDS011;10871;50.144;8.428;2022-07-10T09:09:27;5.43;;;1.35;;
21420;SDS011;10871;50.144;8.428;2022-07-10T09:11:57;4.75;;;1.40;;
21420;SDS011;10871;50.144;8.428;2022-07-10T09:14:25;4.35;;;1.23;;
21420;SDS011;10871;50.144;8.428;2022-07-10T09:17:00;4.85;;;1.30;;
21420;SDS011;10871;50.144;8.428;2022-07-10T09:19:30;6.35;;;1.45;;
21420;SDS011;10871;50.144;8.428;2022-07-10T09:22:10;4.10;;;1.38;;
21420;SDS011;10871;50.144;8.428;2022-07-10T09:24:40;4.90;;;1.50;;
21420;SDS011;10871;50.144;8.428;2022-07-10T09:27:07;4.35;;;1.23;;
21420;SDS011;10871;50.144;8.428;2022-07-10T09:29:52;7.22;;;1.90;;
21420;SDS011;10871;50.144;8.428;2022-07-10T09:32:24;5.18;;;1.50;;
21420;SDS011;10871;50.144;8.428;2022-07-10T09:34:51;2.30;;;1.15;;
21420;SDS011;10871;50.144;8.428;2022-07-10T09:40:10;3.65;;;1.40;;
21420;SDS011;10871;50.144;8.428;2022-07-10T09:42:37;3.88;;;1.30;;
21420;SDS011;10871;50.144;8.428;2022-07-10T09:47:59;3.45;;;1.33;;
21420;SDS011;10871;50.144;8.428;2022-07-10T09:50:31;4.82;;;1.40;;
21420;SDS011;10871;50.144;8.428;2022-07-10T09:53:04;5.78;;;1.63;;
21420;SDS011;10871;50.144;8.428;2022-07-10T09:55:31;5.60;;;1.65;;
21420;SDS011;10871;50.144;8.428;2022-07-10T09:58:08;4.80;;;1.27;;
21420;SDS011;10871;50.144;8.428;2022-07-10T10:00:35;3.90;;;1.50;;
21420;SDS011;10871;50.144;8.428;2022-07-10T10:03:02;4.43;;;1.40;;
21420;SDS011;10871;50.144;8.428;2022-07-10T10:05:47;3.83;;;1.40;;
21420;SDS011;10871;50.144;8.428;2022-07-10T10:08:19;5.78;;;1.48;;
21420;SDS011;10871;50.144;8.428;2022-07-10T10:10:46;5.20;;;1.63;;
21420;SDS011;10871;50.144;8.428;2022-07-10T10:13:17;3.78;;;1.70;;
21420;SDS011;10871;50.144;8.428;2022-07-10T10:15:45;4.50;;;1.40;;
21420;SDS011;10871;50.144;8.428;2022-07-10T10:18:12;6.47;;;1.60;;
21420;SDS011;10871;50.144;8.428;2022-07-10T10:20:40;5.47;;;1.50;;
21420;SDS011;10871;50.144;8.428;2022-07-10T10:23:10;5.57;;;1.40;;
21420;SDS011;10871;50.144;8.428;2022-07-10T10:25:37;8.05;;;1.70;;
21420;SDS011;10871;50.144;8.428;2022-07-10T10:28:04;3.42;;;1.40;;
21420;SDS011;10871;50.144;8.428;2022-07-10T10:30:40;2.75;;;1.40;;
21420;SDS011;10871;50.144;8.428;2022-07-10T10:35:52;4.78;;;1.42;;
21420;SDS011;10871;50.144;8.428;2022-07-10T10:38:18;5.13;;;1.48;;
21420;SDS011;10871;50.144;8.428;2022-07-10T10:40:44;5.25;;;1.27;;
21420;SDS011;10871;50.144;8.428;2022-07-10T10:43:18;5.30;;;1.25;;
21420;SDS011;10871;50.144;8.428;2022-07-10T10:48:15;3.95;;;1.05;;
21420;SDS011;10871;50.144;8.428;2022-07-10T10:51:02;4.88;;;1.30;;
21420;SDS011;10871;50.144;8.428;2022-07-10T10:53:29;4.25;;;1.33;;
21420;SDS011;10871;50.144;8.428;2022-07-10T10:58:37;3.47;;;1.20;;
21420;SDS011;10871;50.144;8.428;2022-07-10T11:06:49;5.07;;;1.40;;
21420;SDS011;10871;50.144;8.428;2022-07-10T11:09:22;4.05;;;1.23;;
21420;SDS011;10871;50.144;8.428;2022-07-10T11:12:06;4.30;;;1.58;;
21420;SDS011;10871;50.144;8.428;2022-07-10T11:14:34;5.28;;;1.33;;
21420;SDS011;10871;50.144;8.428;2022-07-10T11:17:02;4.78;;;1.42;;
21420;SDS011;10871;50.144;8.428;2022-07-10T11:19:29;5.72;;;1.70;;
21420;SDS011;10871;50.144;8.428;2022-07-10T11:22:08;5.03;;;1.45;;
21420;SDS011;10871;50.144;8.428;2022-07-10T11:24:42;3.40;;;1.38;;
21420;SDS011;10871;50.144;8.428;2022-07-10T11:29:41;2.72;;;1.27;;
21420;SDS011;10871;50.144;8.428;2022-07-10T11:32:07;4.93;;;1.27;;
21420;SDS011;10871;50.144;8.428;2022-07-10T11:34:34;4.93;;;1.27;;
21420;SDS011;10871;50.144;8.428;2022-07-10T11:37:01;2.75;;;1.17;;
21420;SDS011;10871;50.144;8.428;2022-07-10T11:39:27;4.72;;;1.10;;
21420;SDS011;10871;50.144;8.428;2022-07-10T11:41:54;2.92;;;1.13;;
21420;SDS011;10871;50.144;8.428;2022-07-10T11:44:20;4.57;;;1.13;;
21420;SDS011;10871;50.144;8.428;2022-07-10T11:46:47;3.88;;;1.20;;
21420;SDS011;10871;50.144;8.428;2022-07-10T11:49:15;2.58;;;0.90;;
21420;SDS011;10871;50.144;8.428;2022-07-10T11:51:43;4.45;;;1.15;;
21420;SDS011;10871;50.144;8.428;2022-07-10T11:54:14;3.33;;;1.10;;
21420;SDS011;10871;50.144;8.428;2022-07-10T11:56:45;5.97;;;1.30;;
21420;SDS011;10871;50.144;8.428;2022-07-10T11:59:13;5.22;;;1.20;;
21420;SDS011;10871;50.144;8.428;2022-07-10T12:04:09;2.72;;;1.00;;
21420;SDS011;10871;50.144;8.428;2022-07-10T12:06:37;2.92;;;1.05;;
21420;SDS011;10871;50.144;8.428;2022-07-10T12:09:04;4.25;;;1.10;;
21420;SDS011;10871;50.144;8.428;2022-07-10T12:11:31;4.38;;;1.13;;
21420;SDS011;10871;50.144;8.428;2022-07-10T12:14:11;4.63;;;1.20;;
21420;SDS011;10871;50.144;8.428;2022-07-10T12:16:38;4.40;;;1.50;;
21420;SDS011;10871;50.144;8.428;2022-07-10T12:19:06;3.67;;;0.98;;
21420;SDS011;10871;50.144;8.428;2022-07-10T12:21:32;3.63;;;1.25;;
21420;SDS011;10871;50.144;8.428;2022-07-10T12:23:59;2.88;;;1.05;;
21420;SDS011;10871;50.144;8.428;2022-07-10T12:26:32;2.55;;;1.10;;
21420;SDS011;10871;50.144;8.428;2022-07-10T12:28:58;3.63;;;1.13;;
21420;SDS011;10871;50.144;8.428;2022-07-10T12:31:26;2.22;;;1.15;;
21420;SDS011;10871;50.144;8.428;2022-07-10T12:33:54;2.50;;;1.10;;
21420;SDS011;10871;50.144;8.428;2022-07-10T12:36:24;1.98;;;0.90;;
21420;SDS011;10871;50.144;8.428;2022-07-10T12:38:54;2.53;;;1.20;;
21420;SDS011;10871;50.144;8.428;2022-07-10T12:41:29;5.28;;;1.10;;
21420;SDS011;10871;50.144;8.428;2022-07-10T12:43:56;2.67;;;1.13;;
21420;SDS011;10871;50.144;8.428;2022-07-10T12:46:23;3.22;;;1.35;;
21420;SDS011;10871;50.144;8.428;2022-07-10T12:49:04;3.45;;;1.00;;
21420;SDS011;10871;50.144;8.428;2022-07-10T12:51:32;2.22;;;1.00;;
21420;SDS011;10871;50.144;8.428;2022-07-10T12:54:35;2.75;;;1.00;;
21420;SDS011;10871;50.144;8.428;2022-07-10T12:57:05;2.55;;;1.00;;
21420;SDS011;10871;50.144;8.428;2022-07-10T12:59:32;2.75;;;0.88;;
21420;SDS011;10871;50.144;8.428;2022-07-10T13:01:59;2.72;;;1.00;;
21420;SDS011;10871;50.144;8.428;2022-07-10T13:04:39;4.90;;;1.20;;
21420;SDS011;10871;50.144;8.428;2022-07-10T13:07:12;4.65;;;1.00;;
21420;SDS011;10871;50.144;8.428;2022-07-10T13:12:06;2.20;;;0.98;;
21420;SDS011;10871;50.144;8.428;2022-07-10T13:14:32;3.10;;;1.00;;
21420;SDS011;10871;50.144;8.428;2022-07-10T13:16:59;2.75;;;0.80;;
21420;SDS011;10871;50.144;8.428;2022-07-10T13:19:25;2.63;;;0.98;;
21420;SDS011;10871;50.144;8.428;2022-07-10T13:21:52;2.08;;;1.10;;
21420;SDS011;10871;50.144;8.428;2022-07-10T13:24:18;1.85;;;1.10;;
21420;SDS011;10871;50.144;8.428;2022-07-10T13:26:45;3.60;;;0.90;;
21420;SDS011;10871;50.144;8.428;2022-07-10T13:29:11;4.88;;;1.08;;
21420;SDS011;10871;50.144;8.428;2022-07-10T13:31:38;2.85;;;0.80;;
21420;SDS011;10871;50.144;8.428;2022-07-10T13:34:04;2.30;;;1.13;;
21420;SDS011;10871;50.144;8.428;2022-07-10T13:36:41;2.17;;;0.80;;
21420;SDS011;10871;50.144;8.428;2022-07-10T13:39:09;4.75;;;1.13;;
21420;SDS011;10871;50.144;8.428;2022-07-10T13:41:35;1.33;;;1.00;;
21420;SDS011;10871;50.144;8.428;2022-07-10T13:44:01;2.05;;;1.17;;
21420;SDS011;10871;50.144;8.428;2022-07-10T13:46:28;0.82;;;0.70;;
21420;SDS011;10871;50.144;8.428;2022-07-10T13:48:54;4.00;;;0.85;;
21420;SDS011;10871;50.144;8.428;2022-07-10T13:51:20;2.20;;;1.30;;
21420;SDS011;10871;50.144;8.428;2022-07-10T13:53:47;2.17;;;1.00;;
21420;SDS011;10871;50.144;8.428;2022-07-10T13:56:14;1.00;;;0.80;;
21420;SDS011;10871;50.144;8.428;2022-07-10T13:58:42;1.35;;;0.80;;
21420;SDS011;10871;50.144;8.428;2022-07-10T14:01:09;2.17;;;0.73;;
21420;SDS011;10871;50.144;8.428;2022-07-10T14:03:35;2.58;;;0.90;;
21420;SDS011;10871;50.144;8.428;2022-07-10T14:06:02;2.25;;;0.75;;
21420;SDS011;10871;50.144;8.428;2022-07-10T14:08:28;3.10;;;0.90;;
21420;SDS011;10871;50.144;8.428;2022-07-10T14:10:54;2.17;;;1.00;;
21420;SDS011;10871;50.144;8.428;2022-07-10T14:13:21;1.88;;;1.00;;
21420;SDS011;10871;50.144;8.428;2022-07-10T14:15:47;1.85;;;0.80;;
21420;SDS011;10871;50.144;8.428;2022-07-10T14:18:14;1.38;;;0.75;;
21420;SDS011;10871;50.144;8.428;2022-07-10T14:21:01;2.15;;;0.73;;
21420;SDS011;10871;50.144;8.428;2022-07-10T14:23:30;1.55;;;1.00;;
21420;SDS011;10871;50.144;8.428;2022-07-10T14:26:00;2.10;;;0.90;;
21420;SDS011;10871;50.144;8.428;2022-07-10T14:28:26;2.47;;;0.90;;
21420;SDS011;10871;50.144;8.428;2022-07-10T14:30:53;1.73;;;0.90;;
21420;SDS011;10871;50.144;8.428;2022-07-10T14:33:20;3.30;;;1.00;;
21420;SDS011;10871;50.144;8.428;2022-07-10T14:35:46;1.65;;;0.82;;
21420;SDS011;10871;50.144;8.428;2022-07-10T14:38:13;3.72;;;1.00;;
21420;SDS011;10871;50.144;8.428;2022-07-10T14:40:39;2.10;;;1.00;;
21420;SDS011;10871;50.144;8.428;2022-07-10T14:43:05;1.88;;;0.90;;
21420;SDS011;10871;50.144;8.428;2022-07-10T14:45:32;1.65;;;0.90;;
21420;SDS011;10871;50.144;8.428;2022-07-10T14:48:18;1.45;;;0.82;;
21420;SDS011;10871;50.144;8.428;2022-07-10T14:50:45;2.63;;;0.82;;
21420;SDS011;10871;50.144;8.428;2022-07-10T14:53:11;2.08;;;0.70;;
21420;SDS011;10871;50.144;8.428;2022-07-10T14:55:38;0.80;;;0.70;;
21420;SDS011;10871;50.144;8.428;2022-07-10T14:58:04;1.35;;;0.80;;
21420;SDS011;10871;50.144;8.428;2022-07-10T15:00:30;0.93;;;0.60;;
21420;SDS011;10871;50.144;8.428;2022-07-10T15:02:57;3.33;;;0.80;;
21420;SDS011;10871;50.144;8.428;2022-07-10T15:05:29;1.13;;;0.77;;
21420;SDS011;10871;50.144;8.428;2022-07-10T15:07:55;0.80;;;0.80;;
21420;SDS011;10871;50.144;8.428;2022-07-10T15:10:22;1.25;;;0.80;;
21420;SDS011;10871;50.144;8.428;2022-07-10T15:12:48;1.02;;;0.90;;
21420;SDS011;10871;50.144;8.428;2022-07-10T15:15:14;1.52;;;0.70;;
21420;SDS011;10871;50.144;8.428;2022-07-10T15:17:41;2.40;;;0.90;;
21420;SDS011;10871;50.144;8.428;2022-07-10T15:20:08;0.80;;;0.80;;
21420;SDS011;10871;50.144;8.428;2022-07-10T15:22:34;1.48;;;0.90;;
21420;SDS011;10871;50.144;8.428;2022-07-10T15:25:01;2.08;;;1.27;;
21420;SDS011;10871;50.144;8.428;2022-07-10T15:27:28;1.48;;;0.90;;